sensor_id;sensor_type;location;lat;lon;timestamp;P1;durP1;ratioP1;P2;durP2;ratioP2
37517;SDS011;23366;52.498;13.446;2022-08-19T00:01:45;15.48;;;11.80;;
37517;SDS011;23366;52.498;13.446;2022-08-19T00:04:14;13.13;;;10.75;;
37517;SDS011;23366;52.498;13.446;2022-08-19T00:06:44;11.68;;;10.02;;
37517;SDS011;23366;52.498;13.446;2022-08-19T00:09:13;11.73;;;9.98;;
37517;SDS011;23366;52.498;13.446;2022-08-19T00:11:42;11.57;;;10.38;;
37517;SDS011;23366;52.498;13.446;2022-08-19T00:14:09;13.88;;;10.18;;
37517;SDS011;23366;52.498;13.446;2022-08-19T00:16:36;15.52;;;10.27;;
37517;SDS011;23366;52.498;13.446;2022-08-19T00:19:03;13.60;;;9.50;;
37517;SDS011;23366;52.498;13.446;2022-08-19T00:21:29;11.30;;;9.77;;
37517;SDS011;23366;52.498;13.446;2022-08-19T00:23:55;10.18;;;9.13;;
37517;SDS011;23366;52.498;13.446;2022-08-19T00:26:27;11.20;;;9.65;;
37517;SDS011;23366;52.498;13.446;2022-08-19T00:28:53;13.82;;;10.55;;
37517;SDS011;23366;52.498;13.446;2022-08-19T00:31:20;13.88;;;9.82;;
37517;SDS011;23366;52.498;13.446;2022-08-19T00:33:46;10.38;;;8.93;;
37517;SDS011;23366;52.498;13.446;2022-08-19T00:36:14;12.70;;;9.52;;
37517;SDS011;23366;52.498;13.446;2022-08-19T00:38:40;14.82;;;11.57;;
37517;SDS011;23366;52.498;13.446;2022-08-19T00:41:18;15.77;;;10.35;;
37517;SDS011;23366;52.498;13.446;2022-08-19T00:46:37;21.80;;;12.52;;
37517;SDS011;23366;52.498;13.446;2022-08-19T00:52:11;17.63;;;12.70;;
37517;SDS011;23366;52.498;13.446;2022-08-19T00:54:39;22.55;;;14.85;;
37517;SDS011;23366;52.498;13.446;2022-08-19T00:57:07;20.45;;;15.63;;
37517;SDS011;23366;52.498;13.446;2022-08-19T00:59:35;22.67;;;16.48;;
37517;SDS011;23366;52.498;13.446;2022-08-19T01:02:04;26.75;;;18.55;;
37517;SDS011;23366;52.498;13.446;2022-08-19T01:04:29;26.83;;;20.20;;
37517;SDS011;23366;52.498;13.446;2022-08-19T01:06:56;32.20;;;19.17;;
37517;SDS011;23366;52.498;13.446;2022-08-19T01:09:22;26.08;;;18.83;;
37517;SDS011;23366;52.498;13.446;2022-08-19T01:11:47;26.75;;;19.05;;
37517;SDS011;23366;52.498;13.446;2022-08-19T01:14:14;30.83;;;20.30;;
37517;SDS011;23366;52.498;13.446;2022-08-19T01:16:42;31.45;;;20.60;;
37517;SDS011;23366;52.498;13.446;2022-08-19T01:19:15;27.42;;;18.70;;
37517;SDS011;23366;52.498;13.446;2022-08-19T01:21:50;27.92;;;20.08;;
37517;SDS011;23366;52.498;13.446;2022-08-19T01:24:22;31.45;;;20.23;;
37517;SDS011;23366;52.498;13.446;2022-08-19T01:26:48;29.70;;;20.88;;
37517;SDS011;23366;52.498;13.446;2022-08-19T01:29:13;31.58;;;20.52;;
37517;SDS011;23366;52.498;13.446;2022-08-19T01:31:39;31.05;;;20.80;;
37517;SDS011;23366;52.498;13.446;2022-08-19T01:34:05;30.85;;;19.92;;
37517;SDS011;23366;52.498;13.446;2022-08-19T01:36:33;39.55;;;22.15;;
37517;SDS011;23366;52.498;13.446;2022-08-19T01:39:00;37.65;;;20.75;;
37517;SDS011;23366;52.498;13.446;2022-08-19T01:41:28;47.30;;;21.73;;
37517;SDS011;23366;52.498;13.446;2022-08-19T01:43:54;37.65;;;22.00;;
37517;SDS011;23366;52.498;13.446;2022-08-19T01:46:21;38.28;;;22.80;;
37517;SDS011;23366;52.498;13.446;2022-08-19T01:48:46;44.25;;;25.02;;
37517;SDS011;23366;52.498;13.446;2022-08-19T01:51:13;37.50;;;23.23;;
37517;SDS011;23366;52.498;13.446;2022-08-19T01:53:40;37.03;;;21.10;;
37517;SDS011;23366;52.498;13.446;2022-08-19T01:56:06;43.85;;;23.25;;
37517;SDS011;23366;52.498;13.446;2022-08-19T01:58:36;38.90;;;21.88;;
37517;SDS011;23366;52.498;13.446;2022-08-19T02:01:06;44.45;;;23.48;;
37517;SDS011;23366;52.498;13.446;2022-08-19T02:03:35;49.17;;;25.05;;
37517;SDS011;23366;52.498;13.446;2022-08-19T02:06:45;57.38;;;25.90;;
37517;SDS011;23366;52.498;13.446;2022-08-19T02:09:10;38.13;;;23.95;;
37517;SDS011;23366;52.498;13.446;2022-08-19T02:11:36;43.03;;;22.50;;
37517;SDS011;23366;52.498;13.446;2022-08-19T02:14:05;43.03;;;24.27;;
37517;SDS011;23366;52.498;13.446;2022-08-19T02:16:32;40.00;;;23.08;;
37517;SDS011;23366;52.498;13.446;2022-08-19T02:19:01;38.53;;;21.90;;
37517;SDS011;23366;52.498;13.446;2022-08-19T02:21:27;51.40;;;23.45;;
37517;SDS011;23366;52.498;13.446;2022-08-19T02:23:54;48.35;;;24.08;;
37517;SDS011;23366;52.498;13.446;2022-08-19T02:26:20;39.25;;;20.05;;
37517;SDS011;23366;52.498;13.446;2022-08-19T02:28:47;35.60;;;20.92;;
37517;SDS011;23366;52.498;13.446;2022-08-19T02:31:15;32.72;;;19.90;;
37517;SDS011;23366;52.498;13.446;2022-08-19T02:33:42;46.33;;;21.60;;
37517;SDS011;23366;52.498;13.446;2022-08-19T02:36:09;39.17;;;20.80;;
37517;SDS011;23366;52.498;13.446;2022-08-19T02:38:37;38.50;;;22.08;;
37517;SDS011;23366;52.498;13.446;2022-08-19T02:41:05;44.75;;;22.95;;
37517;SDS011;23366;52.498;13.446;2022-08-19T02:43:38;38.75;;;23.38;;
37517;SDS011;23366;52.498;13.446;2022-08-19T02:46:15;38.60;;;22.60;;
37517;SDS011;23366;52.498;13.446;2022-08-19T02:48:49;42.05;;;25.25;;
37517;SDS011;23366;52.498;13.446;2022-08-19T02:51:19;40.97;;;23.45;;
37517;SDS011;23366;52.498;13.446;2022-08-19T02:53:47;39.55;;;23.08;;
37517;SDS011;23366;52.498;13.446;2022-08-19T02:56:13;46.05;;;23.33;;
37517;SDS011;23366;52.498;13.446;2022-08-19T02:58:39;44.97;;;23.90;;
37517;SDS011;23366;52.498;13.446;2022-08-19T03:01:04;40.45;;;23.00;;
37517;SDS011;23366;52.498;13.446;2022-08-19T03:03:30;46.78;;;25.08;;
37517;SDS011;23366;52.498;13.446;2022-08-19T03:06:10;56.35;;;25.30;;
37517;SDS011;23366;52.498;13.446;2022-08-19T03:08:38;45.97;;;24.33;;
37517;SDS011;23366;52.498;13.446;2022-08-19T03:11:16;51.45;;;24.92;;
37517;SDS011;23366;52.498;13.446;2022-08-19T03:13:44;51.42;;;23.77;;
37517;SDS011;23366;52.498;13.446;2022-08-19T03:16:11;46.40;;;24.30;;
37517;SDS011;23366;52.498;13.446;2022-08-19T03:18:37;43.53;;;23.75;;
37517;SDS011;23366;52.498;13.446;2022-08-19T03:21:03;45.03;;;23.50;;
37517;SDS011;23366;52.498;13.446;2022-08-19T03:23:29;47.40;;;24.67;;
37517;SDS011;23366;52.498;13.446;2022-08-19T03:25:55;38.78;;;21.75;;
37517;SDS011;23366;52.498;13.446;2022-08-19T03:28:21;34.65;;;20.45;;
37517;SDS011;23366;52.498;13.446;2022-08-19T03:30:57;37.15;;;21.60;;
37517;SDS011;23366;52.498;13.446;2022-08-19T03:33:32;34.33;;;21.30;;
37517;SDS011;23366;52.498;13.446;2022-08-19T03:36:09;39.72;;;23.05;;
37517;SDS011;23366;52.498;13.446;2022-08-19T03:38:37;40.90;;;22.63;;
37517;SDS011;23366;52.498;13.446;2022-08-19T03:41:05;45.35;;;23.95;;
37517;SDS011;23366;52.498;13.446;2022-08-19T03:43:33;39.63;;;22.23;;
37517;SDS011;23366;52.498;13.446;2022-08-19T03:46:01;37.53;;;22.25;;
37517;SDS011;23366;52.498;13.446;2022-08-19T03:48:29;38.45;;;22.20;;
37517;SDS011;23366;52.498;13.446;2022-08-19T03:50:56;41.15;;;22.25;;
37517;SDS011;23366;52.498;13.446;2022-08-19T03:53:23;35.05;;;21.25;;
37517;SDS011;23366;52.498;13.446;2022-08-19T03:55:49;35.13;;;22.35;;
37517;SDS011;23366;52.498;13.446;2022-08-19T03:58:14;33.75;;;21.60;;
37517;SDS011;23366;52.498;13.446;2022-08-19T04:00:41;34.67;;;20.73;;
37517;SDS011;23366;52.498;13.446;2022-08-19T04:03:08;40.47;;;23.77;;
37517;SDS011;23366;52.498;13.446;2022-08-19T04:05:33;34.03;;;20.25;;
37517;SDS011;23366;52.498;13.446;2022-08-19T04:07:59;37.15;;;21.85;;
37517;SDS011;23366;52.498;13.446;2022-08-19T04:10:25;38.15;;;21.58;;
37517;SDS011;23366;52.498;13.446;2022-08-19T04:12:52;42.80;;;25.00;;
37517;SDS011;23366;52.498;13.446;2022-08-19T04:15:18;39.85;;;23.98;;
37517;SDS011;23366;52.498;13.446;2022-08-19T04:17:43;36.00;;;20.02;;
37517;SDS011;23366;52.498;13.446;2022-08-19T04:20:09;36.22;;;20.70;;
37517;SDS011;23366;52.498;13.446;2022-08-19T04:22:35;28.92;;;20.27;;
37517;SDS011;23366;52.498;13.446;2022-08-19T04:25:00;35.83;;;21.30;;
37517;SDS011;23366;52.498;13.446;2022-08-19T04:27:27;34.53;;;19.58;;
37517;SDS011;23366;52.498;13.446;2022-08-19T04:29:53;35.90;;;22.17;;
37517;SDS011;23366;52.498;13.446;2022-08-19T04:32:18;34.28;;;21.25;;
37517;SDS011;23366;52.498;13.446;2022-08-19T04:34:44;34.22;;;23.35;;
37517;SDS011;23366;52.498;13.446;2022-08-19T04:37:10;32.72;;;21.17;;
37517;SDS011;23366;52.498;13.446;2022-08-19T04:39:37;34.42;;;20.77;;
37517;SDS011;23366;52.498;13.446;2022-08-19T04:42:21;33.75;;;22.35;;
37517;SDS011;23366;52.498;13.446;2022-08-19T04:45:12;34.88;;;21.73;;
37517;SDS011;23366;52.498;13.446;2022-08-19T04:47:41;33.53;;;20.55;;
37517;SDS011;23366;52.498;13.446;2022-08-19T04:50:08;39.63;;;21.67;;
37517;SDS011;23366;52.498;13.446;2022-08-19T04:52:37;33.55;;;21.65;;
37517;SDS011;23366;52.498;13.446;2022-08-19T04:55:08;30.83;;;20.50;;
37517;SDS011;23366;52.498;13.446;2022-08-19T04:57:37;30.17;;;19.63;;
37517;SDS011;23366;52.498;13.446;2022-08-19T05:00:05;25.30;;;18.75;;
37517;SDS011;23366;52.498;13.446;2022-08-19T05:02:32;27.48;;;20.73;;
37517;SDS011;23366;52.498;13.446;2022-08-19T05:04:58;24.52;;;18.98;;
37517;SDS011;23366;52.498;13.446;2022-08-19T05:07:25;29.83;;;19.52;;
37517;SDS011;23366;52.498;13.446;2022-08-19T05:09:51;22.08;;;17.73;;
37517;SDS011;23366;52.498;13.446;2022-08-19T05:12:16;18.42;;;16.30;;
37517;SDS011;23366;52.498;13.446;2022-08-19T05:14:43;20.73;;;14.90;;
37517;SDS011;23366;52.498;13.446;2022-08-19T05:17:10;14.32;;;12.38;;
37517;SDS011;23366;52.498;13.446;2022-08-19T05:19:41;14.05;;;11.68;;
37517;SDS011;23366;52.498;13.446;2022-08-19T05:22:25;10.18;;;9.15;;
37517;SDS011;23366;52.498;13.446;2022-08-19T05:24:57;10.05;;;8.77;;
37517;SDS011;23366;52.498;13.446;2022-08-19T05:27:30;8.93;;;7.80;;
37517;SDS011;23366;52.498;13.446;2022-08-19T05:29:56;8.60;;;7.40;;
37517;SDS011;23366;52.498;13.446;2022-08-19T05:32:21;8.88;;;7.78;;
37517;SDS011;23366;52.498;13.446;2022-08-19T05:34:50;7.63;;;6.28;;
37517;SDS011;23366;52.498;13.446;2022-08-19T05:37:26;11.57;;;7.05;;
37517;SDS011;23366;52.498;13.446;2022-08-19T05:39:55;9.35;;;7.10;;
37517;SDS011;23366;52.498;13.446;2022-08-19T05:42:23;6.68;;;6.00;;
37517;SDS011;23366;52.498;13.446;2022-08-19T05:44:49;11.20;;;6.72;;
37517;SDS011;23366;52.498;13.446;2022-08-19T05:47:15;7.75;;;6.95;;
37517;SDS011;23366;52.498;13.446;2022-08-19T05:49:41;7.55;;;6.30;;
37517;SDS011;23366;52.498;13.446;2022-08-19T05:52:09;7.25;;;6.47;;
37517;SDS011;23366;52.498;13.446;2022-08-19T05:54:39;10.75;;;7.00;;
37517;SDS011;23366;52.498;13.446;2022-08-19T05:57:07;10.32;;;6.97;;
37517;SDS011;23366;52.498;13.446;2022-08-19T05:59:34;9.48;;;7.22;;
37517;SDS011;23366;52.498;13.446;2022-08-19T06:02:03;8.38;;;7.50;;
37517;SDS011;23366;52.498;13.446;2022-08-19T06:04:30;7.95;;;6.82;;
37517;SDS011;23366;52.498;13.446;2022-08-19T06:06:55;8.38;;;6.88;;
37517;SDS011;23366;52.498;13.446;2022-08-19T06:09:21;10.13;;;7.35;;
37517;SDS011;23366;52.498;13.446;2022-08-19T06:11:51;9.45;;;7.45;;
37517;SDS011;23366;52.498;13.446;2022-08-19T06:14:19;11.40;;;8.15;;
37517;SDS011;23366;52.498;13.446;2022-08-19T06:16:50;14.63;;;9.02;;
37517;SDS011;23366;52.498;13.446;2022-08-19T06:19:18;11.80;;;7.68;;
37517;SDS011;23366;52.498;13.446;2022-08-19T06:21:45;14.48;;;9.65;;
37517;SDS011;23366;52.498;13.446;2022-08-19T06:24:14;10.13;;;9.07;;
37517;SDS011;23366;52.498;13.446;2022-08-19T06:26:42;11.00;;;9.80;;
37517;SDS011;23366;52.498;13.446;2022-08-19T06:29:10;12.20;;;9.32;;
37517;SDS011;23366;52.498;13.446;2022-08-19T06:31:40;11.00;;;9.38;;
37517;SDS011;23366;52.498;13.446;2022-08-19T06:34:07;11.55;;;9.13;;
37517;SDS011;23366;52.498;13.446;2022-08-19T06:36:34;12.57;;;9.68;;
37517;SDS011;23366;52.498;13.446;2022-08-19T06:41:36;10.85;;;9.75;;
37517;SDS011;23366;52.498;13.446;2022-08-19T06:44:03;10.35;;;8.77;;
37517;SDS011;23366;52.498;13.446;2022-08-19T06:46:30;14.45;;;9.90;;
37517;SDS011;23366;52.498;13.446;2022-08-19T06:48:55;15.38;;;9.65;;
37517;SDS011;23366;52.498;13.446;2022-08-19T06:51:22;10.57;;;9.48;;
37517;SDS011;23366;52.498;13.446;2022-08-19T06:53:49;11.95;;;9.23;;
37517;SDS011;23366;52.498;13.446;2022-08-19T06:56:17;12.25;;;9.27;;
37517;SDS011;23366;52.498;13.446;2022-08-19T06:58:46;16.63;;;11.00;;
37517;SDS011;23366;52.498;13.446;2022-08-19T07:01:12;16.35;;;10.82;;
37517;SDS011;23366;52.498;13.446;2022-08-19T07:03:38;14.70;;;10.68;;
37517;SDS011;23366;52.498;13.446;2022-08-19T07:06:04;13.00;;;10.18;;
37517;SDS011;23366;52.498;13.446;2022-08-19T07:08:40;12.07;;;9.25;;
37517;SDS011;23366;52.498;13.446;2022-08-19T07:11:08;15.57;;;11.13;;
37517;SDS011;23366;52.498;13.446;2022-08-19T07:13:36;12.63;;;10.23;;
37517;SDS011;23366;52.498;13.446;2022-08-19T07:16:09;12.18;;;10.43;;
37517;SDS011;23366;52.498;13.446;2022-08-19T07:18:37;13.38;;;10.48;;
37517;SDS011;23366;52.498;13.446;2022-08-19T07:23:37;12.55;;;10.40;;
37517;SDS011;23366;52.498;13.446;2022-08-19T07:26:10;12.23;;;9.98;;
37517;SDS011;23366;52.498;13.446;2022-08-19T07:28:48;11.32;;;9.90;;
37517;SDS011;23366;52.498;13.446;2022-08-19T07:31:15;10.38;;;9.27;;
37517;SDS011;23366;52.498;13.446;2022-08-19T07:33:44;16.38;;;11.45;;
37517;SDS011;23366;52.498;13.446;2022-08-19T07:36:12;14.85;;;10.40;;
37517;SDS011;23366;52.498;13.446;2022-08-19T07:38:41;14.55;;;10.30;;
37517;SDS011;23366;52.498;13.446;2022-08-19T07:41:12;12.63;;;9.85;;
37517;SDS011;23366;52.498;13.446;2022-08-19T07:43:39;13.98;;;11.57;;
37517;SDS011;23366;52.498;13.446;2022-08-19T07:46:05;12.95;;;10.80;;
37517;SDS011;23366;52.498;13.446;2022-08-19T07:48:32;14.38;;;10.63;;
37517;SDS011;23366;52.498;13.446;2022-08-19T07:51:01;10.95;;;9.75;;
37517;SDS011;23366;52.498;13.446;2022-08-19T07:53:29;15.98;;;10.73;;
37517;SDS011;23366;52.498;13.446;2022-08-19T07:55:58;12.98;;;11.45;;
37517;SDS011;23366;52.498;13.446;2022-08-19T08:00:55;14.80;;;11.27;;
37517;SDS011;23366;52.498;13.446;2022-08-19T08:03:22;12.93;;;10.10;;
37517;SDS011;23366;52.498;13.446;2022-08-19T08:06:09;14.70;;;11.00;;
37517;SDS011;23366;52.498;13.446;2022-08-19T08:08:53;13.95;;;10.88;;
37517;SDS011;23366;52.498;13.446;2022-08-19T08:11:48;14.50;;;11.10;;
37517;SDS011;23366;52.498;13.446;2022-08-19T08:14:29;12.27;;;10.48;;
37517;SDS011;23366;52.498;13.446;2022-08-19T08:16:58;13.40;;;11.05;;
37517;SDS011;23366;52.498;13.446;2022-08-19T08:19:25;10.73;;;9.63;;
37517;SDS011;23366;52.498;13.446;2022-08-19T08:21:56;14.27;;;10.77;;
37517;SDS011;23366;52.498;13.446;2022-08-19T08:24:23;15.65;;;11.63;;
37517;SDS011;23366;52.498;13.446;2022-08-19T08:26:49;16.60;;;10.45;;
37517;SDS011;23366;52.498;13.446;2022-08-19T08:29:14;12.80;;;9.50;;
37517;SDS011;23366;52.498;13.446;2022-08-19T08:31:41;15.82;;;11.48;;
37517;SDS011;23366;52.498;13.446;2022-08-19T08:34:09;14.27;;;11.23;;
37517;SDS011;23366;52.498;13.446;2022-08-19T08:36:36;13.38;;;10.77;;
37517;SDS011;23366;52.498;13.446;2022-08-19T08:39:07;12.10;;;10.07;;
37517;SDS011;23366;52.498;13.446;2022-08-19T08:41:41;13.93;;;9.70;;
37517;SDS011;23366;52.498;13.446;2022-08-19T08:44:16;13.57;;;9.82;;
37517;SDS011;23366;52.498;13.446;2022-08-19T08:46:48;12.60;;;9.63;;
37517;SDS011;23366;52.498;13.446;2022-08-19T08:49:20;11.45;;;10.02;;
37517;SDS011;23366;52.498;13.446;2022-08-19T08:52:33;14.07;;;10.80;;
37517;SDS011;23366;52.498;13.446;2022-08-19T08:54:50;11.68;;;8.90;;
37517;SDS011;23366;52.498;13.446;2022-08-19T08:57:21;12.20;;;10.13;;
37517;SDS011;23366;52.498;13.446;2022-08-19T08:59:53;11.27;;;9.15;;
37517;SDS011;23366;52.498;13.446;2022-08-19T09:02:21;15.70;;;9.50;;
37517;SDS011;23366;52.498;13.446;2022-08-19T09:04:46;12.60;;;9.15;;
37517;SDS011;23366;52.498;13.446;2022-08-19T09:07:22;10.65;;;9.57;;
37517;SDS011;23366;52.498;13.446;2022-08-19T09:10:37;13.98;;;10.95;;
37517;SDS011;23366;52.498;13.446;2022-08-19T09:13:27;13.82;;;10.02;;
37517;SDS011;23366;52.498;13.446;2022-08-19T09:16:17;12.80;;;9.02;;
37517;SDS011;23366;52.498;13.446;2022-08-19T09:21:18;13.40;;;11.80;;
37517;SDS011;23366;52.498;13.446;2022-08-19T09:23:45;13.73;;;11.20;;
37517;SDS011;23366;52.498;13.446;2022-08-19T09:26:12;12.27;;;10.55;;
37517;SDS011;23366;52.498;13.446;2022-08-19T09:28:41;10.32;;;9.25;;
37517;SDS011;23366;52.498;13.446;2022-08-19T09:31:11;13.48;;;9.52;;
37517;SDS011;23366;52.498;13.446;2022-08-19T09:33:38;10.20;;;9.10;;
37517;SDS011;23366;52.498;13.446;2022-08-19T09:36:05;10.73;;;8.98;;
37517;SDS011;23366;52.498;13.446;2022-08-19T09:38:34;10.00;;;9.00;;
37517;SDS011;23366;52.498;13.446;2022-08-19T09:41:04;15.02;;;9.98;;
37517;SDS011;23366;52.498;13.446;2022-08-19T09:43:31;14.52;;;9.38;;
37517;SDS011;23366;52.498;13.446;2022-08-19T09:46:01;10.57;;;9.47;;
37517;SDS011;23366;52.498;13.446;2022-08-19T09:48:30;11.85;;;9.63;;
37517;SDS011;23366;52.498;13.446;2022-08-19T09:51:02;10.52;;;8.80;;
37517;SDS011;23366;52.498;13.446;2022-08-19T09:53:40;10.85;;;8.32;;
37517;SDS011;23366;52.498;13.446;2022-08-19T09:56:07;14.43;;;9.50;;
37517;SDS011;23366;52.498;13.446;2022-08-19T09:58:33;10.80;;;8.63;;
37517;SDS011;23366;52.498;13.446;2022-08-19T10:00:59;11.90;;;9.52;;
37517;SDS011;23366;52.498;13.446;2022-08-19T10:03:27;10.10;;;8.70;;
37517;SDS011;23366;52.498;13.446;2022-08-19T10:05:53;12.77;;;9.20;;
37517;SDS011;23366;52.498;13.446;2022-08-19T10:08:27;13.85;;;9.80;;
37517;SDS011;23366;52.498;13.446;2022-08-19T10:10:56;9.90;;;7.85;;
37517;SDS011;23366;52.498;13.446;2022-08-19T10:13:24;10.85;;;8.38;;
37517;SDS011;23366;52.498;13.446;2022-08-19T10:15:51;10.20;;;8.68;;
37517;SDS011;23366;52.498;13.446;2022-08-19T10:18:19;12.52;;;9.82;;
37517;SDS011;23366;52.498;13.446;2022-08-19T10:20:46;11.65;;;9.77;;
37517;SDS011;23366;52.498;13.446;2022-08-19T10:23:12;10.13;;;8.38;;
37517;SDS011;23366;52.498;13.446;2022-08-19T10:25:40;12.63;;;8.73;;
37517;SDS011;23366;52.498;13.446;2022-08-19T10:28:05;13.40;;;10.38;;
37517;SDS011;23366;52.498;13.446;2022-08-19T10:30:32;13.07;;;10.07;;
37517;SDS011;23366;52.498;13.446;2022-08-19T10:33:00;14.55;;;9.63;;
37517;SDS011;23366;52.498;13.446;2022-08-19T10:35:26;11.02;;;9.30;;
37517;SDS011;23366;52.498;13.446;2022-08-19T10:37:53;11.38;;;9.32;;
37517;SDS011;23366;52.498;13.446;2022-08-19T10:40:19;12.07;;;9.40;;
37517;SDS011;23366;52.498;13.446;2022-08-19T10:42:44;12.48;;;9.45;;
37517;SDS011;23366;52.498;13.446;2022-08-19T10:45:10;13.25;;;9.43;;
37517;SDS011;23366;52.498;13.446;2022-08-19T10:47:35;11.93;;;9.18;;
37517;SDS011;23366;52.498;13.446;2022-08-19T10:50:02;10.55;;;8.52;;
37517;SDS011;23366;52.498;13.446;2022-08-19T10:52:47;10.82;;;9.13;;
37517;SDS011;23366;52.498;13.446;2022-08-19T10:55:16;12.13;;;8.73;;
37517;SDS011;23366;52.498;13.446;2022-08-19T10:58:03;9.85;;;7.75;;
37517;SDS011;23366;52.498;13.446;2022-08-19T11:00:29;9.85;;;7.70;;
37517;SDS011;23366;52.498;13.446;2022-08-19T11:02:56;10.48;;;8.60;;
37517;SDS011;23366;52.498;13.446;2022-08-19T11:05:22;11.88;;;10.35;;
37517;SDS011;23366;52.498;13.446;2022-08-19T11:07:47;15.65;;;9.70;;
37517;SDS011;23366;52.498;13.446;2022-08-19T11:10:16;11.57;;;9.18;;
37517;SDS011;23366;52.498;13.446;2022-08-19T11:12:44;9.85;;;8.85;;
37517;SDS011;23366;52.498;13.446;2022-08-19T11:15:11;18.65;;;10.32;;
37517;SDS011;23366;52.498;13.446;2022-08-19T11:17:37;13.30;;;9.73;;
37517;SDS011;23366;52.498;13.446;2022-08-19T11:20:09;15.18;;;9.55;;
37517;SDS011;23366;52.498;13.446;2022-08-19T11:22:37;15.45;;;9.45;;
37517;SDS011;23366;52.498;13.446;2022-08-19T11:25:03;13.45;;;10.05;;
37517;SDS011;23366;52.498;13.446;2022-08-19T11:27:29;15.90;;;10.90;;
37517;SDS011;23366;52.498;13.446;2022-08-19T11:29:58;10.40;;;9.05;;
37517;SDS011;23366;52.498;13.446;2022-08-19T11:32:25;14.82;;;8.75;;
37517;SDS011;23366;52.498;13.446;2022-08-19T11:34:51;13.43;;;9.45;;
37517;SDS011;23366;52.498;13.446;2022-08-19T11:37:16;13.73;;;8.60;;
37517;SDS011;23366;52.498;13.446;2022-08-19T11:39:42;9.80;;;7.50;;
37517;SDS011;23366;52.498;13.446;2022-08-19T11:42:08;9.30;;;8.27;;
37517;SDS011;23366;52.498;13.446;2022-08-19T11:44:52;12.68;;;9.20;;
37517;SDS011;23366;52.498;13.446;2022-08-19T11:47:18;12.52;;;7.78;;
37517;SDS011;23366;52.498;13.446;2022-08-19T11:49:45;13.30;;;9.18;;
37517;SDS011;23366;52.498;13.446;2022-08-19T11:52:11;11.32;;;8.00;;
37517;SDS011;23366;52.498;13.446;2022-08-19T11:54:37;9.30;;;7.63;;
37517;SDS011;23366;52.498;13.446;2022-08-19T11:57:03;12.07;;;8.13;;
37517;SDS011;23366;52.498;13.446;2022-08-19T11:59:29;9.57;;;7.28;;
37517;SDS011;23366;52.498;13.446;2022-08-19T12:01:54;7.78;;;6.55;;
37517;SDS011;23366;52.498;13.446;2022-08-19T12:04:20;10.05;;;7.80;;
37517;SDS011;23366;52.498;13.446;2022-08-19T12:06:46;10.13;;;7.05;;
37517;SDS011;23366;52.498;13.446;2022-08-19T12:09:12;12.70;;;10.82;;
37517;SDS011;23366;52.498;13.446;2022-08-19T12:11:39;8.45;;;7.57;;
37517;SDS011;23366;52.498;13.446;2022-08-19T12:14:05;13.88;;;8.20;;
37517;SDS011;23366;52.498;13.446;2022-08-19T12:16:32;16.00;;;7.93;;
37517;SDS011;23366;52.498;13.446;2022-08-19T12:18:58;19.20;;;8.75;;
37517;SDS011;23366;52.498;13.446;2022-08-19T12:21:28;11.05;;;7.95;;
37517;SDS011;23366;52.498;13.446;2022-08-19T12:23:55;10.32;;;6.88;;
37517;SDS011;23366;52.498;13.446;2022-08-19T12:26:22;9.73;;;7.13;;
37517;SDS011;23366;52.498;13.446;2022-08-19T12:28:50;14.52;;;7.05;;
37517;SDS011;23366;52.498;13.446;2022-08-19T12:31:16;11.40;;;6.53;;
37517;SDS011;23366;52.498;13.446;2022-08-19T12:33:43;6.78;;;5.80;;
37517;SDS011;23366;52.498;13.446;2022-08-19T12:36:09;11.70;;;6.53;;
37517;SDS011;23366;52.498;13.446;2022-08-19T12:38:36;6.63;;;5.97;;
37517;SDS011;23366;52.498;13.446;2022-08-19T12:41:03;9.52;;;6.45;;
37517;SDS011;23366;52.498;13.446;2022-08-19T12:43:35;9.32;;;5.63;;
37517;SDS011;23366;52.498;13.446;2022-08-19T12:46:02;7.03;;;6.05;;
37517;SDS011;23366;52.498;13.446;2022-08-19T12:48:29;7.70;;;5.43;;
37517;SDS011;23366;52.498;13.446;2022-08-19T12:50:55;6.32;;;5.32;;
37517;SDS011;23366;52.498;13.446;2022-08-19T12:53:20;7.38;;;5.43;;
37517;SDS011;23366;52.498;13.446;2022-08-19T12:55:46;6.30;;;5.40;;
37517;SDS011;23366;52.498;13.446;2022-08-19T12:58:11;5.68;;;5.07;;
37517;SDS011;23366;52.498;13.446;2022-08-19T13:00:37;7.07;;;5.30;;
37517;SDS011;23366;52.498;13.446;2022-08-19T13:03:03;7.22;;;4.85;;
37517;SDS011;23366;52.498;13.446;2022-08-19T13:05:30;5.20;;;4.70;;
37517;SDS011;23366;52.498;13.446;2022-08-19T13:07:58;6.03;;;5.43;;
37517;SDS011;23366;52.498;13.446;2022-08-19T13:10:26;6.65;;;5.10;;
37517;SDS011;23366;52.498;13.446;2022-08-19T13:13:00;6.90;;;5.60;;
37517;SDS011;23366;52.498;13.446;2022-08-19T13:15:27;8.13;;;6.32;;
37517;SDS011;23366;52.498;13.446;2022-08-19T13:17:56;10.93;;;8.30;;
37517;SDS011;23366;52.498;13.446;2022-08-19T13:20:22;11.25;;;9.70;;
37517;SDS011;23366;52.498;13.446;2022-08-19T13:22:48;10.93;;;8.07;;
37517;SDS011;23366;52.498;13.446;2022-08-19T13:25:14;8.73;;;6.40;;
37517;SDS011;23366;52.498;13.446;2022-08-19T13:27:42;8.07;;;6.53;;
37517;SDS011;23366;52.498;13.446;2022-08-19T13:30:09;8.82;;;5.88;;
37517;SDS011;23366;52.498;13.446;2022-08-19T13:32:55;9.65;;;7.00;;
37517;SDS011;23366;52.498;13.446;2022-08-19T13:38:07;8.18;;;7.05;;
37517;SDS011;23366;52.498;13.446;2022-08-19T13:40:33;7.15;;;6.22;;
37517;SDS011;23366;52.498;13.446;2022-08-19T13:43:01;10.10;;;6.88;;
37517;SDS011;23366;52.498;13.446;2022-08-19T13:45:28;8.38;;;7.32;;
37517;SDS011;23366;52.498;13.446;2022-08-19T13:47:55;7.32;;;6.53;;
37517;SDS011;23366;52.498;13.446;2022-08-19T13:50:22;8.13;;;6.70;;
37517;SDS011;23366;52.498;13.446;2022-08-19T13:52:50;6.55;;;5.95;;
37517;SDS011;23366;52.498;13.446;2022-08-19T13:55:17;7.80;;;7.00;;
37517;SDS011;23366;52.498;13.446;2022-08-19T13:57:42;9.75;;;8.25;;
37517;SDS011;23366;52.498;13.446;2022-08-19T14:00:09;7.45;;;6.75;;
37517;SDS011;23366;52.498;13.446;2022-08-19T14:02:38;6.75;;;6.05;;
37517;SDS011;23366;52.498;13.446;2022-08-19T14:05:07;8.98;;;7.32;;
37517;SDS011;23366;52.498;13.446;2022-08-19T14:07:34;11.00;;;7.38;;
37517;SDS011;23366;52.498;13.446;2022-08-19T14:10:00;13.75;;;7.47;;
37517;SDS011;23366;52.498;13.446;2022-08-19T14:12:27;7.32;;;6.25;;
37517;SDS011;23366;52.498;13.446;2022-08-19T14:14:53;12.10;;;7.28;;
37517;SDS011;23366;52.498;13.446;2022-08-19T14:17:18;10.27;;;7.45;;
37517;SDS011;23366;52.498;13.446;2022-08-19T14:19:44;10.07;;;7.25;;
37517;SDS011;23366;52.498;13.446;2022-08-19T14:22:09;7.60;;;6.85;;
37517;SDS011;23366;52.498;13.446;2022-08-19T14:24:37;8.77;;;7.22;;
37517;SDS011;23366;52.498;13.446;2022-08-19T14:27:04;12.15;;;7.35;;
37517;SDS011;23366;52.498;13.446;2022-08-19T14:29:31;11.40;;;7.95;;
37517;SDS011;23366;52.498;13.446;2022-08-19T14:31:56;8.60;;;7.50;;
37517;SDS011;23366;52.498;13.446;2022-08-19T14:34:23;10.68;;;7.30;;
37517;SDS011;23366;52.498;13.446;2022-08-19T14:36:50;8.73;;;7.38;;
37517;SDS011;23366;52.498;13.446;2022-08-19T14:39:16;10.55;;;7.95;;
37517;SDS011;23366;52.498;13.446;2022-08-19T14:41:42;10.98;;;7.60;;
37517;SDS011;23366;52.498;13.446;2022-08-19T14:44:08;8.63;;;7.55;;
37517;SDS011;23366;52.498;13.446;2022-08-19T14:46:37;9.10;;;7.75;;